Terminal Aerodrome Forecast
Issued by NWS

Home | Current Version | Previous Version | Text Only | Print | Product List | Glossary On
Versions: 1 2 3 4 5 6 7 8 9 10 11 12 13 14 15 16 17 18 19 20 21 22 23 24 25 26 27 28 29 30 31 32 33 34 35 36 37 38 39 40 41 42 43 44 45 46 47 48
000
FTUS43 KMKX 282329
TAFENW
TAF
KENW 282329Z 2900/2924 12009KT P6SM BKN250
     FM290400 12005KT P6SM BKN200
     FM290800 15004KT P6SM BKN060
     FM291100 17005KT P6SM VCTS BKN050CB
     FM291400 17005KT P6SM -SHRA VCTS SCT030 BKN060CB
     FM291800 19012KT P6SM SHRA VCTS BKN035CB
     FM292000 18011KT P6SM TSRA BKN040CB=

USA.gov is the U.S. government's official web portal to all federal, state and local government web resources and services.